N747MA EDHL-EDXW
Flight info
| Callsign | N747MA |
|---|---|
| Flight time | 1h 1m |
| Altitude | |
| Route | DCT |
| Aircraft | C172 |
Departure
| Time | 2026-04-22 12:31 |
|---|---|
| Airport | Lübeck Blankensee Airport (EDHL) |
Arrival
| Time | 2026-04-22 13:33 |
|---|---|
| Airport | Westerland Sylt Airport (EDXW) |
| Time | Latitude | Longitude | Altitude | Speed | Heading |
|---|---|---|---|---|---|
| 2026-04-22 12:28 | 53.80516 | 10.70372 | 53 ft | 2 kts | 140° |
| 2026-04-22 12:28 | 53.80456 | 10.70445 | 53 ft | 13 kts | 103° |
| 2026-04-22 12:28 | 53.80474 | 10.70578 | 53 ft | 11 kts | 77° |
| 2026-04-22 12:28 | 53.80501 | 10.70731 | 54 ft | 16 kts | 71° |
| 2026-04-22 12:29 | 53.80538 | 10.70920 | 54 ft | 18 kts | 72° |
| 2026-04-22 12:29 | 53.80576 | 10.71118 | 58 ft | 19 kts | 71° |
| 2026-04-22 12:29 | 53.80619 | 10.71338 | 57 ft | 19 kts | 72° |
| 2026-04-22 12:29 | 53.80659 | 10.71555 | 56 ft | 20 kts | 77° |
| 2026-04-22 12:30 | 53.80587 | 10.71924 | 55 ft | 15 kts | 111° |
| 2026-04-22 12:30 | 53.80529 | 10.71907 | 55 ft | 20 kts | 252° |
| 2026-04-22 12:30 | 53.80437 | 10.71413 | 64 ft | 66 kts | 259° |
| 2026-04-22 12:31 | 53.80253 | 10.70555 | 166 ft | 84 kts | 255° |
| 2026-04-22 12:31 | 53.80207 | 10.69619 | 395 ft | 80 kts | 293° |
| 2026-04-22 12:31 | 53.80423 | 10.68712 | 605 ft | 83 kts | 296° |
| 2026-04-22 12:31 | 53.80660 | 10.67770 | 764 ft | 91 kts | 298° |
| 2026-04-22 12:32 | 53.80923 | 10.66764 | 956 ft | 97 kts | 298° |
| 2026-04-22 12:32 | 53.81403 | 10.65078 | 1301 ft | 95 kts | 297° |
| 2026-04-22 12:32 | 53.81671 | 10.64044 | 1459 ft | 98 kts | 297° |
| 2026-04-22 12:33 | 53.81953 | 10.62934 | 1539 ft | 103 kts | 297° |
| 2026-04-22 12:33 | 53.82271 | 10.61850 | 1648 ft | 106 kts | 302° |
| 2026-04-22 12:33 | 53.82621 | 10.60742 | 1810 ft | 107 kts | 300° |
| 2026-04-22 12:33 | 53.82977 | 10.59631 | 1891 ft | 108 kts | 302° |
| 2026-04-22 12:34 | 53.83358 | 10.58522 | 2037 ft | 110 kts | 303° |
| 2026-04-22 12:34 | 53.83923 | 10.57719 | 2190 ft | 109 kts | 333° |
| 2026-04-22 12:34 | 53.84609 | 10.57158 | 2289 ft | 109 kts | 335° |
| 2026-04-22 12:34 | 53.85307 | 10.56602 | 2326 ft | 112 kts | 333° |
| 2026-04-22 12:35 | 53.86049 | 10.55991 | 2257 ft | 123 kts | 333° |
| 2026-04-22 12:35 | 53.86798 | 10.55361 | 2306 ft | 118 kts | 333° |
| 2026-04-22 12:35 | 53.87543 | 10.54766 | 2311 ft | 118 kts | 334° |
| 2026-04-22 12:35 | 53.88285 | 10.54194 | 2374 ft | 117 kts | 334° |
| 2026-04-22 12:36 | 53.89020 | 10.53622 | 2408 ft | 113 kts | 335° |
| 2026-04-22 12:36 | 53.89742 | 10.53077 | 2408 ft | 114 kts | 336° |
| 2026-04-22 12:36 | 53.90481 | 10.52555 | 2421 ft | 114 kts | 338° |
| 2026-04-22 12:36 | 53.91232 | 10.52106 | 2434 ft | 115 kts | 340° |
| 2026-04-22 12:37 | 53.91944 | 10.51585 | 2499 ft | 112 kts | 317° |
| 2026-04-22 12:37 | 53.92443 | 10.50600 | 2500 ft | 111 kts | 312° |
| 2026-04-22 12:37 | 53.92954 | 10.49618 | 2618 ft | 111 kts | 315° |
| 2026-04-22 12:37 | 53.93485 | 10.48657 | 2742 ft | 111 kts | 314° |
| 2026-04-22 12:38 | 53.94020 | 10.47711 | 2742 ft | 112 kts | 315° |
| 2026-04-22 12:38 | 53.94573 | 10.46753 | 2762 ft | 116 kts | 316° |
| 2026-04-22 12:38 | 53.95131 | 10.45815 | 2795 ft | 112 kts | 316° |
| 2026-04-22 12:38 | 53.95698 | 10.44893 | 2847 ft | 115 kts | 318° |
| 2026-04-22 12:39 | 53.96253 | 10.43965 | 2913 ft | 110 kts | 315° |
| 2026-04-22 12:39 | 53.97330 | 10.41984 | 2815 ft | 117 kts | 312° |
| 2026-04-22 12:39 | 53.97864 | 10.40915 | 2759 ft | 119 kts | 311° |
| 2026-04-22 12:40 | 53.98384 | 10.39850 | 2825 ft | 117 kts | 311° |
| 2026-04-22 12:40 | 53.98905 | 10.38800 | 2903 ft | 115 kts | 314° |
| 2026-04-22 12:40 | 53.99447 | 10.37793 | 2911 ft | 115 kts | 313° |
| 2026-04-22 12:40 | 53.99968 | 10.36808 | 2996 ft | 110 kts | 313° |
| 2026-04-22 12:41 | 54.00495 | 10.35839 | 3040 ft | 114 kts | 313° |
| 2026-04-22 12:41 | 54.01048 | 10.34818 | 3038 ft | 120 kts | 313° |
| 2026-04-22 12:41 | 54.01607 | 10.33794 | 3060 ft | 114 kts | 314° |
| 2026-04-22 12:41 | 54.02152 | 10.32818 | 3047 ft | 113 kts | 315° |
| 2026-04-22 12:42 | 54.02701 | 10.31844 | 3010 ft | 115 kts | 315° |
| 2026-04-22 12:42 | 54.03260 | 10.30877 | 3005 ft | 114 kts | 316° |
| 2026-04-22 12:42 | 54.03836 | 10.29941 | 3054 ft | 116 kts | 319° |
| 2026-04-22 12:42 | 54.04452 | 10.29021 | 3091 ft | 117 kts | 320° |
| 2026-04-22 12:43 | 54.05077 | 10.28124 | 3137 ft | 118 kts | 319° |
| 2026-04-22 12:43 | 54.05639 | 10.27148 | 3193 ft | 114 kts | 315° |
| 2026-04-22 12:43 | 54.06190 | 10.26143 | 3166 ft | 119 kts | 314° |
| 2026-04-22 12:43 | 54.06751 | 10.25129 | 3173 ft | 117 kts | 315° |
| 2026-04-22 12:44 | 54.07310 | 10.24115 | 3090 ft | 120 kts | 314° |
| 2026-04-22 12:44 | 54.07894 | 10.23106 | 3027 ft | 121 kts | 316° |
| 2026-04-22 12:44 | 54.08486 | 10.22109 | 2992 ft | 122 kts | 317° |
| 2026-04-22 12:44 | 54.09123 | 10.21145 | 2954 ft | 121 kts | 320° |
| 2026-04-22 12:45 | 54.09760 | 10.20238 | 2959 ft | 118 kts | 320° |
| 2026-04-22 12:45 | 54.10376 | 10.19334 | 2986 ft | 117 kts | 316° |
| 2026-04-22 12:45 | 54.10953 | 10.18350 | 3020 ft | 117 kts | 316° |
| 2026-04-22 12:45 | 54.11516 | 10.17383 | 3071 ft | 115 kts | 315° |
| 2026-04-22 12:46 | 54.12097 | 10.16421 | 3027 ft | 116 kts | 316° |
| 2026-04-22 12:46 | 54.12673 | 10.15434 | 3035 ft | 119 kts | 313° |
| 2026-04-22 12:46 | 54.13254 | 10.14443 | 3125 ft | 117 kts | 316° |
| 2026-04-22 12:46 | 54.13831 | 10.13479 | 3238 ft | 115 kts | 316° |
| 2026-04-22 12:47 | 54.14385 | 10.12479 | 3191 ft | 116 kts | 313° |
| 2026-04-22 12:47 | 54.14933 | 10.11447 | 3099 ft | 119 kts | 313° |
| 2026-04-22 12:47 | 54.15488 | 10.10396 | 3036 ft | 121 kts | 312° |
| 2026-04-22 12:47 | 54.16026 | 10.09335 | 3110 ft | 116 kts | 313° |
| 2026-04-22 12:48 | 54.16573 | 10.08327 | 3070 ft | 116 kts | 313° |
| 2026-04-22 12:48 | 54.17103 | 10.07312 | 3064 ft | 115 kts | 314° |
| 2026-04-22 12:48 | 54.17665 | 10.06301 | 3023 ft | 118 kts | 314° |
| 2026-04-22 12:48 | 54.18239 | 10.05335 | 3047 ft | 118 kts | 316° |
| 2026-04-22 12:49 | 54.18833 | 10.04372 | 3065 ft | 115 kts | 317° |
| 2026-04-22 12:49 | 54.19422 | 10.03432 | 3106 ft | 117 kts | 318° |
| 2026-04-22 12:49 | 54.20029 | 10.02500 | 3092 ft | 120 kts | 318° |
| 2026-04-22 12:49 | 54.20634 | 10.01538 | 3104 ft | 118 kts | 318° |
| 2026-04-22 12:50 | 54.21247 | 10.00591 | 3111 ft | 117 kts | 320° |
| 2026-04-22 12:50 | 54.21863 | 9.99685 | 3100 ft | 116 kts | 320° |
| 2026-04-22 12:50 | 54.22471 | 9.98771 | 3119 ft | 119 kts | 319° |
| 2026-04-22 12:50 | 54.23112 | 9.97788 | 3053 ft | 127 kts | 319° |
| 2026-04-22 12:51 | 54.23762 | 9.96800 | 2976 ft | 123 kts | 319° |
| 2026-04-22 12:51 | 54.24395 | 9.95815 | 2797 ft | 126 kts | 316° |
| 2026-04-22 12:51 | 54.25017 | 9.94794 | 2832 ft | 107 kts | 317° |
| 2026-04-22 12:51 | 54.25569 | 9.93872 | 2818 ft | 113 kts | 315° |
| 2026-04-22 12:52 | 54.26107 | 9.92938 | 2935 ft | 109 kts | 315° |
| 2026-04-22 12:52 | 54.26666 | 9.92042 | 3032 ft | 112 kts | 318° |
| 2026-04-22 12:52 | 54.27254 | 9.91126 | 3090 ft | 115 kts | 320° |
| 2026-04-22 12:52 | 54.27851 | 9.90174 | 3112 ft | 117 kts | 313° |
| 2026-04-22 12:53 | 54.28225 | 9.88954 | 3116 ft | 116 kts | 290° |
| 2026-04-22 12:53 | 54.28452 | 9.87629 | 3097 ft | 117 kts | 288° |
| 2026-04-22 12:53 | 54.28681 | 9.86276 | 3107 ft | 120 kts | 290° |
| 2026-04-22 12:53 | 54.28928 | 9.84883 | 3063 ft | 120 kts | 291° |
| 2026-04-22 12:54 | 54.29155 | 9.83537 | 3078 ft | 116 kts | 288° |
| 2026-04-22 12:54 | 54.29372 | 9.82198 | 3099 ft | 120 kts | 289° |
| 2026-04-22 12:54 | 54.29610 | 9.80783 | 3050 ft | 123 kts | 291° |
| 2026-04-22 12:54 | 54.29865 | 9.79459 | 3189 ft | 114 kts | 292° |
| 2026-04-22 12:55 | 54.30107 | 9.78186 | 3233 ft | 112 kts | 290° |
| 2026-04-22 12:55 | 54.30365 | 9.76919 | 3240 ft | 114 kts | 297° |
| 2026-04-22 12:55 | 54.30683 | 9.75680 | 3291 ft | 114 kts | 298° |
| 2026-04-22 12:55 | 54.31050 | 9.74501 | 3342 ft | 112 kts | 297° |
| 2026-04-22 12:56 | 54.31233 | 9.73754 | 3283 ft | 119 kts | 294° |
| 2026-04-22 12:57 | 54.31389 | 9.73111 | 3226 ft | 121 kts | 296° |
| 2026-04-22 12:58 | 54.31722 | 9.71787 | 3189 ft | 121 kts | 296° |
| 2026-04-22 12:58 | 54.32069 | 9.70480 | 3074 ft | 123 kts | 297° |
| 2026-04-22 12:58 | 54.32439 | 9.69157 | 3070 ft | 122 kts | 299° |
| 2026-04-22 12:58 | 54.32814 | 9.67896 | 3021 ft | 118 kts | 298° |
| 2026-04-22 12:59 | 54.33171 | 9.66646 | 3028 ft | 117 kts | 296° |
| 2026-04-22 12:59 | 54.33513 | 9.65394 | 3030 ft | 114 kts | 298° |
| 2026-04-22 12:59 | 54.33843 | 9.64146 | 2995 ft | 116 kts | 297° |
| 2026-04-22 12:59 | 54.34204 | 9.62867 | 2944 ft | 121 kts | 299° |
| 2026-04-22 13:00 | 54.34581 | 9.61603 | 2932 ft | 119 kts | 300° |
| 2026-04-22 13:00 | 54.34969 | 9.60311 | 2874 ft | 123 kts | 301° |
| 2026-04-22 13:00 | 54.35341 | 9.59040 | 2848 ft | 119 kts | 298° |
| 2026-04-22 13:00 | 54.35729 | 9.57736 | 2566 ft | 136 kts | 301° |
| 2026-04-22 13:01 | 54.36101 | 9.56596 | 2894 ft | 109 kts | 304° |
| 2026-04-22 13:01 | 54.36467 | 9.55462 | 2932 ft | 112 kts | 301° |
| 2026-04-22 13:01 | 54.36848 | 9.54242 | 2936 ft | 118 kts | 301° |
| 2026-04-22 13:01 | 54.37268 | 9.53011 | 3000 ft | 120 kts | 303° |
| 2026-04-22 13:02 | 54.37704 | 9.51773 | 2972 ft | 124 kts | 303° |
| 2026-04-22 13:02 | 54.38175 | 9.50506 | 2960 ft | 126 kts | 302° |
| 2026-04-22 13:02 | 54.38615 | 9.49240 | 2913 ft | 124 kts | 304° |
| 2026-04-22 13:02 | 54.39077 | 9.47979 | 2846 ft | 121 kts | 306° |
| 2026-04-22 13:03 | 54.39509 | 9.46752 | 2814 ft | 117 kts | 303° |
| 2026-04-22 13:03 | 54.39923 | 9.45531 | 2725 ft | 121 kts | 302° |
| 2026-04-22 13:03 | 54.40373 | 9.44317 | 2785 ft | 119 kts | 307° |
| 2026-04-22 13:03 | 54.40813 | 9.43104 | 2755 ft | 121 kts | 304° |
| 2026-04-22 13:04 | 54.41235 | 9.41883 | 2779 ft | 117 kts | 302° |
| 2026-04-22 13:04 | 54.41629 | 9.40666 | 2737 ft | 119 kts | 303° |
| 2026-04-22 13:04 | 54.42048 | 9.39467 | 2752 ft | 116 kts | 304° |
| 2026-04-22 13:04 | 54.42464 | 9.38271 | 2661 ft | 118 kts | 303° |
| 2026-04-22 13:05 | 54.42896 | 9.37101 | 2661 ft | 114 kts | 304° |
| 2026-04-22 13:05 | 54.43314 | 9.35917 | 2647 ft | 118 kts | 302° |
| 2026-04-22 13:05 | 54.43755 | 9.34710 | 2569 ft | 121 kts | 306° |
| 2026-04-22 13:05 | 54.44198 | 9.33500 | 2552 ft | 123 kts | 306° |
| 2026-04-22 13:06 | 54.44650 | 9.32272 | 2525 ft | 119 kts | 304° |
| 2026-04-22 13:06 | 54.45094 | 9.31033 | 2522 ft | 120 kts | 305° |
| 2026-04-22 13:06 | 54.45545 | 9.29839 | 2540 ft | 121 kts | 307° |
| 2026-04-22 13:06 | 54.45958 | 9.28590 | 2542 ft | 119 kts | 301° |
| 2026-04-22 13:07 | 54.46339 | 9.27348 | 2553 ft | 116 kts | 301° |
| 2026-04-22 13:07 | 54.46724 | 9.26131 | 2547 ft | 115 kts | 301° |
| 2026-04-22 13:07 | 54.47116 | 9.24939 | 2570 ft | 113 kts | 302° |
| 2026-04-22 13:07 | 54.47511 | 9.23783 | 2670 ft | 112 kts | 302° |
| 2026-04-22 13:08 | 54.47899 | 9.22625 | 2795 ft | 112 kts | 302° |
| 2026-04-22 13:08 | 54.48306 | 9.21482 | 2851 ft | 113 kts | 304° |
| 2026-04-22 13:08 | 54.48727 | 9.20353 | 3007 ft | 110 kts | 307° |
| 2026-04-22 13:08 | 54.49158 | 9.19227 | 3121 ft | 113 kts | 306° |
| 2026-04-22 13:09 | 54.49572 | 9.18104 | 3161 ft | 112 kts | 306° |
| 2026-04-22 13:09 | 54.49982 | 9.16963 | 3157 ft | 112 kts | 307° |
| 2026-04-22 13:09 | 54.50394 | 9.15822 | 3196 ft | 112 kts | 305° |
| 2026-04-22 13:09 | 54.50812 | 9.14674 | 3186 ft | 114 kts | 304° |
| 2026-04-22 13:10 | 54.51217 | 9.13484 | 3251 ft | 114 kts | 305° |
| 2026-04-22 13:10 | 54.51613 | 9.12284 | 3257 ft | 116 kts | 305° |
| 2026-04-22 13:10 | 54.52020 | 9.11102 | 3319 ft | 115 kts | 304° |
| 2026-04-22 13:10 | 54.52394 | 9.09890 | 3348 ft | 114 kts | 304° |
| 2026-04-22 13:11 | 54.52763 | 9.08677 | 3379 ft | 115 kts | 305° |
| 2026-04-22 13:11 | 54.53125 | 9.07419 | 3374 ft | 120 kts | 301° |
| 2026-04-22 13:11 | 54.53501 | 9.06110 | 3333 ft | 122 kts | 301° |
| 2026-04-22 13:11 | 54.53855 | 9.04939 | 3271 ft | 117 kts | 303° |
| 2026-04-22 13:12 | 54.54245 | 9.03641 | 3265 ft | 120 kts | 303° |
| 2026-04-22 13:12 | 54.54635 | 9.02342 | 3239 ft | 125 kts | 302° |
| 2026-04-22 13:12 | 54.55018 | 9.01015 | 3205 ft | 124 kts | 303° |
| 2026-04-22 13:12 | 54.55427 | 8.99719 | 3227 ft | 124 kts | 302° |
| 2026-04-22 13:13 | 54.55813 | 8.98409 | 3202 ft | 118 kts | 303° |
| 2026-04-22 13:13 | 54.56172 | 8.97147 | 3202 ft | 119 kts | 305° |
| 2026-04-22 13:13 | 54.56542 | 8.95879 | 3164 ft | 119 kts | 301° |
| 2026-04-22 13:13 | 54.56938 | 8.94626 | 3208 ft | 118 kts | 302° |
| 2026-04-22 13:14 | 54.57308 | 8.93334 | 3190 ft | 124 kts | 301° |
| 2026-04-22 13:14 | 54.57694 | 8.92038 | 3156 ft | 120 kts | 303° |
| 2026-04-22 13:14 | 54.58065 | 8.90787 | 3215 ft | 114 kts | 303° |
| 2026-04-22 13:14 | 54.58423 | 8.89539 | 3213 ft | 116 kts | 301° |
| 2026-04-22 13:15 | 54.58768 | 8.88295 | 3238 ft | 116 kts | 301° |
| 2026-04-22 13:15 | 54.59115 | 8.87015 | 3183 ft | 117 kts | 302° |
| 2026-04-22 13:15 | 54.59459 | 8.85773 | 3217 ft | 113 kts | 303° |
| 2026-04-22 13:15 | 54.59790 | 8.84557 | 3296 ft | 110 kts | 301° |
| 2026-04-22 13:16 | 54.60115 | 8.83401 | 3405 ft | 108 kts | 302° |
| 2026-04-22 13:16 | 54.60462 | 8.82211 | 3455 ft | 114 kts | 303° |
| 2026-04-22 13:16 | 54.60818 | 8.80974 | 3460 ft | 117 kts | 301° |
| 2026-04-22 13:16 | 54.61179 | 8.79713 | 3463 ft | 115 kts | 305° |
| 2026-04-22 13:17 | 54.61533 | 8.78465 | 3429 ft | 119 kts | 302° |
| 2026-04-22 13:17 | 54.61895 | 8.77190 | 3433 ft | 117 kts | 302° |
| 2026-04-22 13:17 | 54.62266 | 8.75933 | 3455 ft | 117 kts | 302° |
| 2026-04-22 13:17 | 54.62646 | 8.74693 | 3500 ft | 116 kts | 302° |
| 2026-04-22 13:18 | 54.63027 | 8.73470 | 3514 ft | 119 kts | 302° |
| 2026-04-22 13:18 | 54.63431 | 8.72169 | 3491 ft | 124 kts | 302° |
| 2026-04-22 13:18 | 54.63838 | 8.70864 | 3519 ft | 121 kts | 304° |
| 2026-04-22 13:18 | 54.64234 | 8.69578 | 3433 ft | 123 kts | 301° |
| 2026-04-22 13:19 | 54.64600 | 8.68217 | 3344 ft | 124 kts | 302° |
| 2026-04-22 13:19 | 54.64832 | 8.67334 | 3294 ft | 118 kts | 300° |
| 2026-04-22 13:19 | 54.65135 | 8.66090 | 3193 ft | 109 kts | 299° |
| 2026-04-22 13:19 | 54.65395 | 8.64877 | 3090 ft | 108 kts | 297° |
| 2026-04-22 13:20 | 54.65670 | 8.63698 | 2862 ft | 107 kts | 297° |
| 2026-04-22 13:20 | 54.65983 | 8.62436 | 2589 ft | 118 kts | 299° |
| 2026-04-22 13:20 | 54.66308 | 8.61234 | 2562 ft | 109 kts | 301° |
| 2026-04-22 13:20 | 54.66643 | 8.60064 | 2510 ft | 109 kts | 301° |
| 2026-04-22 13:21 | 54.66975 | 8.58888 | 2485 ft | 108 kts | 301° |
| 2026-04-22 13:21 | 54.67144 | 8.58275 | 2452 ft | 109 kts | 301° |
| 2026-04-22 13:21 | 54.67346 | 8.57533 | 2384 ft | 112 kts | 301° |
| 2026-04-22 13:21 | 54.67693 | 8.56316 | 2249 ft | 115 kts | 301° |
| 2026-04-22 13:22 | 54.68037 | 8.55089 | 2214 ft | 112 kts | 301° |
| 2026-04-22 13:22 | 54.68375 | 8.53897 | 2172 ft | 112 kts | 300° |
| 2026-04-22 13:22 | 54.68727 | 8.52683 | 2176 ft | 113 kts | 300° |
| 2026-04-22 13:22 | 54.69058 | 8.51456 | 2181 ft | 113 kts | 297° |
| 2026-04-22 13:23 | 54.69392 | 8.50241 | 2235 ft | 108 kts | 302° |
| 2026-04-22 13:23 | 54.69744 | 8.49095 | 2247 ft | 106 kts | 302° |
| 2026-04-22 13:23 | 54.70096 | 8.47966 | 2232 ft | 110 kts | 303° |
| 2026-04-22 13:23 | 54.70472 | 8.46805 | 2212 ft | 110 kts | 305° |
| 2026-04-22 13:24 | 54.70828 | 8.45659 | 2253 ft | 104 kts | 302° |
| 2026-04-22 13:24 | 54.71162 | 8.44566 | 2319 ft | 102 kts | 302° |
| 2026-04-22 13:24 | 54.71517 | 8.43443 | 2301 ft | 113 kts | 303° |
| 2026-04-22 13:24 | 54.71924 | 8.42259 | 2380 ft | 115 kts | 303° |
| 2026-04-22 13:25 | 54.72283 | 8.41084 | 2470 ft | 105 kts | 303° |
| 2026-04-22 13:25 | 54.72633 | 8.39934 | 2472 ft | 110 kts | 301° |
| 2026-04-22 13:25 | 54.72977 | 8.38740 | 2539 ft | 111 kts | 299° |
| 2026-04-22 13:25 | 54.73274 | 8.37529 | 2571 ft | 115 kts | 297° |
| 2026-04-22 13:26 | 54.73563 | 8.36316 | 2584 ft | 107 kts | 299° |
| 2026-04-22 13:26 | 54.73885 | 8.35064 | 2469 ft | 119 kts | 297° |
| 2026-04-22 13:26 | 54.74242 | 8.33796 | 2457 ft | 115 kts | 308° |
| 2026-04-22 13:26 | 54.74790 | 8.32813 | 2403 ft | 113 kts | 326° |
| 2026-04-22 13:27 | 54.75487 | 8.32204 | 2347 ft | 114 kts | 341° |
| 2026-04-22 13:27 | 54.76293 | 8.32004 | 2269 ft | 119 kts | 357° |
| 2026-04-22 13:27 | 54.77092 | 8.31964 | 2250 ft | 114 kts | 357° |
| 2026-04-22 13:27 | 54.77923 | 8.31932 | 2145 ft | 120 kts | 356° |
| 2026-04-22 13:28 | 54.78765 | 8.31956 | 2104 ft | 119 kts | 358° |
| 2026-04-22 13:28 | 54.79589 | 8.31993 | 2068 ft | 119 kts | 358° |
| 2026-04-22 13:28 | 54.80426 | 8.32002 | 1965 ft | 120 kts | 357° |
| 2026-04-22 13:28 | 54.81243 | 8.32038 | 1896 ft | 121 kts | 359° |
| 2026-04-22 13:29 | 54.82083 | 8.32068 | 1839 ft | 119 kts | 357° |
| 2026-04-22 13:29 | 54.82942 | 8.32098 | 1643 ft | 127 kts | 359° |
| 2026-04-22 13:29 | 54.83820 | 8.32144 | 1554 ft | 123 kts | 358° |
| 2026-04-22 13:29 | 54.84654 | 8.32202 | 1514 ft | 118 kts | 359° |
| 2026-04-22 13:30 | 54.85449 | 8.32381 | 1400 ft | 117 kts | 15° |
| 2026-04-22 13:30 | 54.86110 | 8.33278 | 1207 ft | 126 kts | 45° |
| 2026-04-22 13:30 | 54.86571 | 8.34560 | 1090 ft | 122 kts | 53° |
| 2026-04-22 13:30 | 54.86988 | 8.35765 | 1070 ft | 111 kts | 47° |
| 2026-04-22 13:31 | 54.87498 | 8.36697 | 1054 ft | 105 kts | 33° |
| 2026-04-22 13:31 | 54.88029 | 8.37469 | 1033 ft | 96 kts | 26° |
| 2026-04-22 13:31 | 54.88544 | 8.37538 | 876 ft | 72 kts | 321° |
| 2026-04-22 13:31 | 54.88929 | 8.36970 | 646 ft | 71 kts | 321° |
| 2026-04-22 13:32 | 54.89316 | 8.36497 | 513 ft | 66 kts | 329° |
| 2026-04-22 13:32 | 54.89707 | 8.36047 | 368 ft | 68 kts | 323° |
| 2026-04-22 13:32 | 54.90099 | 8.35573 | 227 ft | 65 kts | 326° |
| 2026-04-22 13:32 | 54.90483 | 8.35089 | 66 ft | 69 kts | 323° |
| 2026-04-22 13:33 | 54.90818 | 8.34671 | 34 ft | 49 kts | 324° |
| 2026-04-22 13:33 | 54.91022 | 8.34422 | 40 ft | 25 kts | 324° |
| 2026-04-22 13:33 | 54.91170 | 8.34236 | 40 ft | 32 kts | 322° |
| 2026-04-22 13:33 | 54.91305 | 8.34044 | 37 ft | 18 kts | 284° |
| 2026-04-22 13:34 | 54.91247 | 8.33827 | 32 ft | 23 kts | 240° |
| 2026-04-22 13:34 | 54.91163 | 8.33575 | 30 ft | 25 kts | 239° |
| 2026-04-22 13:34 | 54.91080 | 8.33333 | 32 ft | 20 kts | 237° |
| 2026-04-22 13:34 | 54.91017 | 8.33096 | 33 ft | 24 kts | 257° |
| 2026-04-22 13:35 | 54.91061 | 8.32907 | 36 ft | 11 kts | 309° |
| 2026-04-22 13:35 | 54.91110 | 8.32811 | 36 ft | 14 kts | 310° |
| 2026-04-22 13:35 | 54.91157 | 8.32700 | 33 ft | 7 kts | 246° |
| 2026-04-22 13:35 | 54.91146 | 8.32673 | 33 ft | 0 kts | 229° |